Windham, NY

7:07 PM EST on December 17, 2014 (GMT -0500)
Schenectady County | Change Station
CLOSE
Current Station
Airport
Location: Schenectady,
Elevation: 377 ft
Nearby Weather Stations

Elev 377 ft 42.85 °N, 73.93 °W | Updated 7 hours ago

Overcast
Overcast
31 °F
Feels Like 24 °F
N
9
Wind Variable Wind from WNW
Gusts 12 mph

Today
High -- | Low -- °F
--% Chance of Precip.
Yesterday
High -- | Low -- °F
Precip. -- in
7:20 AM 4:26 PM
Waning Crescent, 19% visible
Pressure 29.79 in
Visibility 7.0 miles
Clouds Scattered Clouds 200 ft
Overcast 1900 ft
Windchill 24 °F
Dew Point 28 °F
Humidity 86%
Rainfall 0.00 in
Snow Depth Not available.
UV 1 out of 12
Pollen .10 out of 12
Air Quality Not available.
Flu Activity Not available.
METAR KSCH 171654Z 00000KT 7SM SCT002 OVC019 04/04 A2979

More Conditions Fewer Conditions

Pressure 29.79 in
Visibility 7.0 miles
Clouds Scattered Clouds 200 ft
Overcast 1900 ft
Windchill 24 °F
Dew Point 28 °F
Humidity 86%
Rainfall 0.00 in
Snow Depth Not available.
UV 1 out of 12
Pollen .10 out of 12
Air Quality Not available.
Flu Activity Not available.
METAR KSCH 171654Z 00000KT 7SM SCT002 OVC019 04/04 A2979

More Conditions Fewer Conditions

10-Day Weather Forecast

Almanac

Astronomy

Dec. 17, 2014 Rise Set
Actual Time
Civil Twilight
Nautical Twilight
Astronomical Twilight
Moon
Length of Visible Light
Length of Day
Tomorrow will be .
, % of the Moon is Illuminated

Today's Extremes

State Highs State Lows

Community

WunderPhotos

Upload Photos

1,778,831 photos uploaded!

WunderBlogs® & News

Nearby

Air Quality

  Air Quality AQ Index Pollutant
Not available.

Snow Depth

Station Depth Elevation

Earthquake Activity

City Distance Mag. Time & Date
Minimum magnitude displayed is 2.5.

Coastal Water Temperatures

Place Temperature

Nearby Weather Stations